sensor_id;sensor_type;location;lat;lon;timestamp;pressure;altitude;pressure_sealevel;temperature;humidity
62025;BME280;47978;49.118;12.146;2022-11-04T00:01:41;96355.34;;;8.75;95.32
62025;BME280;47978;49.118;12.146;2022-11-04T00:04:09;96345.25;;;8.62;95.43
62025;BME280;47978;49.118;12.146;2022-11-04T00:06:37;96347.38;;;8.65;95.43
62025;BME280;47978;49.118;12.146;2022-11-04T00:09:05;96363.25;;;8.60;95.72
62025;BME280;47978;49.118;12.146;2022-11-04T00:11:32;96368.44;;;8.61;95.76
62025;BME280;47978;49.118;12.146;2022-11-04T00:13:58;96367.47;;;8.66;95.65
62025;BME280;47978;49.118;12.146;2022-11-04T00:16:26;96375.41;;;8.67;95.31
62025;BME280;47978;49.118;12.146;2022-11-04T00:18:53;96388.38;;;8.67;95.32
62025;BME280;47978;49.118;12.146;2022-11-04T00:21:19;96403.47;;;8.69;95.52
62025;BME280;47978;49.118;12.146;2022-11-04T00:23:46;96402.81;;;8.64;95.70
62025;BME280;47978;49.118;12.146;2022-11-04T00:26:12;96410.59;;;8.70;95.71
62025;BME280;47978;49.118;12.146;2022-11-04T00:28:39;96409.94;;;8.73;95.41
62025;BME280;47978;49.118;12.146;2022-11-04T00:31:07;96400.06;;;8.72;96.77
62025;BME280;47978;49.118;12.146;2022-11-04T00:33:35;96407.56;;;8.89;97.24
62025;BME280;47978;49.118;12.146;2022-11-04T00:36:01;96400.47;;;9.14;98.50
62025;BME280;47978;49.118;12.146;2022-11-04T00:38:28;96408.09;;;9.35;97.92
62025;BME280;47978;49.118;12.146;2022-11-04T00:40:55;96400.94;;;9.34;97.87
62025;BME280;47978;49.118;12.146;2022-11-04T00:43:22;96402.56;;;9.35;97.14
62025;BME280;47978;49.118;12.146;2022-11-04T00:45:48;96418.16;;;9.39;97.35
62025;BME280;47978;49.118;12.146;2022-11-04T00:48:15;96417.00;;;9.40;97.57
62025;BME280;47978;49.118;12.146;2022-11-04T00:50:43;96411.16;;;9.42;97.52
62025;BME280;47978;49.118;12.146;2022-11-04T00:53:09;96408.06;;;9.43;97.60
62025;BME280;47978;49.118;12.146;2022-11-04T00:55:36;96414.91;;;9.46;97.49
62025;BME280;47978;49.118;12.146;2022-11-04T00:58:03;96418.44;;;9.55;97.09
62025;BME280;47978;49.118;12.146;2022-11-04T01:00:30;96432.91;;;9.52;96.84
62025;BME280;47978;49.118;12.146;2022-11-04T01:02:56;96437.75;;;9.64;97.11
62025;BME280;47978;49.118;12.146;2022-11-04T01:05:23;96435.00;;;9.64;97.21
62025;BME280;47978;49.118;12.146;2022-11-04T01:07:51;96440.38;;;9.60;97.50
62025;BME280;47978;49.118;12.146;2022-11-04T01:10:17;96437.91;;;9.59;97.42
62025;BME280;47978;49.118;12.146;2022-11-04T01:12:44;96428.38;;;9.56;97.63
62025;BME280;47978;49.118;12.146;2022-11-04T01:15:10;96436.81;;;9.60;97.63
62025;BME280;47978;49.118;12.146;2022-11-04T01:17:37;96441.19;;;9.61;97.32
62025;BME280;47978;49.118;12.146;2022-11-04T01:20:04;96441.97;;;9.61;97.48
62025;BME280;47978;49.118;12.146;2022-11-04T01:22:30;96458.38;;;9.58;97.61
62025;BME280;47978;49.118;12.146;2022-11-04T01:24:58;96467.47;;;9.58;97.17
62025;BME280;47978;49.118;12.146;2022-11-04T01:27:25;96472.53;;;9.56;97.31
62025;BME280;47978;49.118;12.146;2022-11-04T01:29:51;96485.69;;;9.59;96.91
62025;BME280;47978;49.118;12.146;2022-11-04T01:32:18;96484.53;;;9.60;96.91
62025;BME280;47978;49.118;12.146;2022-11-04T01:34:45;96481.28;;;9.58;96.97
62025;BME280;47978;49.118;12.146;2022-11-04T01:37:12;96485.34;;;9.69;95.87
62025;BME280;47978;49.118;12.146;2022-11-04T01:39:38;96487.78;;;9.62;96.42
62025;BME280;47978;49.118;12.146;2022-11-04T01:42:11;96480.16;;;9.59;96.59
62025;BME280;47978;49.118;12.146;2022-11-04T01:44:50;96483.22;;;9.66;96.58
62025;BME280;47978;49.118;12.146;2022-11-04T01:47:17;96470.88;;;9.64;96.55
62025;BME280;47978;49.118;12.146;2022-11-04T01:49:49;96480.97;;;9.60;97.09
62025;BME280;47978;49.118;12.146;2022-11-04T01:52:21;96483.88;;;9.63;97.19
62025;BME280;47978;49.118;12.146;2022-11-04T01:54:50;96496.06;;;9.62;97.23
62025;BME280;47978;49.118;12.146;2022-11-04T01:57:22;96497.19;;;9.61;97.50
62025;BME280;47978;49.118;12.146;2022-11-04T01:59:51;96498.34;;;9.60;97.46
62025;BME280;47978;49.118;12.146;2022-11-04T02:02:17;96500.75;;;9.62;97.39
62025;BME280;47978;49.118;12.146;2022-11-04T02:04:44;96499.94;;;9.70;97.52
62025;BME280;47978;49.118;12.146;2022-11-04T02:07:11;96498.16;;;9.83;97.37
62025;BME280;47978;49.118;12.146;2022-11-04T02:09:39;96509.34;;;9.95;97.04
62025;BME280;47978;49.118;12.146;2022-11-04T02:12:06;96518.47;;;9.87;97.04
62025;BME280;47978;49.118;12.146;2022-11-04T02:14:35;96521.56;;;9.85;97.77
62025;BME280;47978;49.118;12.146;2022-11-04T02:17:08;96524.16;;;9.82;97.91
62025;BME280;47978;49.118;12.146;2022-11-04T02:19:58;96520.41;;;9.86;98.31
62025;BME280;47978;49.118;12.146;2022-11-04T02:22:40;96519.75;;;9.81;98.46
62025;BME280;47978;49.118;12.146;2022-11-04T02:25:30;96522.53;;;9.81;98.12
62025;BME280;47978;49.118;12.146;2022-11-04T02:28:13;96518.16;;;9.80;98.30
62025;BME280;47978;49.118;12.146;2022-11-04T02:30:49;96522.38;;;9.77;98.26
62025;BME280;47978;49.118;12.146;2022-11-04T02:33:20;96521.56;;;9.77;98.19
62025;BME280;47978;49.118;12.146;2022-11-04T02:35:55;96525.78;;;9.83;98.27
62025;BME280;47978;49.118;12.146;2022-11-04T02:38:30;96535.34;;;9.94;98.27
62025;BME280;47978;49.118;12.146;2022-11-04T02:41:03;96543.66;;;9.94;98.08
62025;BME280;47978;49.118;12.146;2022-11-04T02:43:40;96543.00;;;9.97;98.20
62025;BME280;47978;49.118;12.146;2022-11-04T02:46:15;96537.31;;;10.11;98.16
62025;BME280;47978;49.118;12.146;2022-11-04T02:48:46;96541.53;;;10.00;98.39
62025;BME280;47978;49.118;12.146;2022-11-04T02:51:18;96536.47;;;9.93;98.88
62025;BME280;47978;49.118;12.146;2022-11-04T02:53:52;96546.25;;;9.99;98.68
62025;BME280;47978;49.118;12.146;2022-11-04T02:56:21;96541.19;;;9.93;98.61
62025;BME280;47978;49.118;12.146;2022-11-04T02:58:53;96544.94;;;9.97;98.56
62025;BME280;47978;49.118;12.146;2022-11-04T03:01:24;96552.75;;;9.86;98.85
62025;BME280;47978;49.118;12.146;2022-11-04T03:03:54;96550.94;;;9.81;98.93
62025;BME280;47978;49.118;12.146;2022-11-04T03:06:24;96546.06;;;9.78;99.05
62025;BME280;47978;49.118;12.146;2022-11-04T03:08:53;96551.94;;;9.77;99.22
62025;BME280;47978;49.118;12.146;2022-11-04T03:11:22;96555.66;;;9.72;99.42
62025;BME280;47978;49.118;12.146;2022-11-04T03:13:53;96549.81;;;9.74;99.33
62025;BME280;47978;49.118;12.146;2022-11-04T03:16:26;96547.53;;;9.76;98.72
62025;BME280;47978;49.118;12.146;2022-11-04T03:18:55;96551.59;;;9.69;98.92
62025;BME280;47978;49.118;12.146;2022-11-04T03:21:25;96556.59;;;9.67;99.09
62025;BME280;47978;49.118;12.146;2022-11-04T03:23:54;96561.00;;;9.68;99.14
62025;BME280;47978;49.118;12.146;2022-11-04T03:26:25;96554.84;;;9.72;98.94
62025;BME280;47978;49.118;12.146;2022-11-04T03:29:01;96552.41;;;9.70;98.87
62025;BME280;47978;49.118;12.146;2022-11-04T03:31:39;96561.31;;;9.76;98.43
62025;BME280;47978;49.118;12.146;2022-11-04T03:34:09;96558.56;;;9.76;98.67
62025;BME280;47978;49.118;12.146;2022-11-04T03:36:36;96557.91;;;9.79;98.62
62025;BME280;47978;49.118;12.146;2022-11-04T03:39:02;96560.22;;;9.77;98.42
62025;BME280;47978;49.118;12.146;2022-11-04T03:41:32;96564.09;;;9.76;98.78
62025;BME280;47978;49.118;12.146;2022-11-04T03:43:59;96566.19;;;9.79;98.14
62025;BME280;47978;49.118;12.146;2022-11-04T03:46:26;96555.50;;;9.68;98.56
62025;BME280;47978;49.118;12.146;2022-11-04T03:48:54;96553.53;;;9.78;98.42
62025;BME280;47978;49.118;12.146;2022-11-04T03:51:21;96556.59;;;9.67;98.29
62025;BME280;47978;49.118;12.146;2022-11-04T03:53:48;96553.38;;;9.65;98.20
62025;BME280;47978;49.118;12.146;2022-11-04T03:56:43;96552.72;;;9.68;98.24
62025;BME280;47978;49.118;12.146;2022-11-04T03:59:27;96555.34;;;9.74;98.20
62025;BME280;47978;49.118;12.146;2022-11-04T04:02:06;96556.94;;;9.75;97.73
62025;BME280;47978;49.118;12.146;2022-11-04T04:04:39;96554.19;;;9.75;97.41
62025;BME280;47978;49.118;12.146;2022-11-04T04:07:12;96565.88;;;9.72;96.73
62025;BME280;47978;49.118;12.146;2022-11-04T04:09:43;96565.06;;;9.71;97.24
62025;BME280;47978;49.118;12.146;2022-11-04T04:12:15;96563.25;;;9.58;97.39
62025;BME280;47978;49.118;12.146;2022-11-04T04:14:47;96566.50;;;9.51;97.78
62025;BME280;47978;49.118;12.146;2022-11-04T04:17:18;96569.59;;;9.50;98.19
62025;BME280;47978;49.118;12.146;2022-11-04T04:19:51;96569.72;;;9.44;98.27
62025;BME280;47978;49.118;12.146;2022-11-04T04:22:21;96566.66;;;9.46;98.47
62025;BME280;47978;49.118;12.146;2022-11-04T04:24:52;96577.06;;;9.49;98.30
62025;BME280;47978;49.118;12.146;2022-11-04T04:27:20;96576.69;;;9.42;98.29
62025;BME280;47978;49.118;12.146;2022-11-04T04:29:49;96563.53;;;9.39;98.42
62025;BME280;47978;49.118;12.146;2022-11-04T04:32:19;96556.09;;;9.39;98.51
62025;BME280;47978;49.118;12.146;2022-11-04T04:34:48;96570.84;;;9.35;98.51
62025;BME280;47978;49.118;12.146;2022-11-04T04:37:18;96568.09;;;9.35;98.62
62025;BME280;47978;49.118;12.146;2022-11-04T04:39:48;96566.31;;;9.39;98.20
62025;BME280;47978;49.118;12.146;2022-11-04T04:42:15;96560.47;;;9.32;98.48
62025;BME280;47978;49.118;12.146;2022-11-04T04:44:42;96561.09;;;9.29;98.63
62025;BME280;47978;49.118;12.146;2022-11-04T04:47:10;96559.47;;;9.28;98.49
62025;BME280;47978;49.118;12.146;2022-11-04T04:49:49;96556.38;;;9.20;98.76
62025;BME280;47978;49.118;12.146;2022-11-04T04:52:16;96544.84;;;9.18;98.73
62025;BME280;47978;49.118;12.146;2022-11-04T04:54:42;96538.72;;;9.39;97.94
62025;BME280;47978;49.118;12.146;2022-11-04T04:57:09;96536.78;;;9.31;97.88
62025;BME280;47978;49.118;12.146;2022-11-04T04:59:36;96534.97;;;9.26;98.30
62025;BME280;47978;49.118;12.146;2022-11-04T05:02:02;96530.25;;;9.27;98.30
62025;BME280;47978;49.118;12.146;2022-11-04T05:04:29;96531.56;;;9.20;98.72
62025;BME280;47978;49.118;12.146;2022-11-04T05:06:57;96530.25;;;9.18;98.87
62025;BME280;47978;49.118;12.146;2022-11-04T05:09:24;96534.94;;;9.17;98.84
62025;BME280;47978;49.118;12.146;2022-11-04T05:11:50;96530.72;;;9.11;98.99
62025;BME280;47978;49.118;12.146;2022-11-04T05:14:17;96535.47;;;9.19;98.60
62025;BME280;47978;49.118;12.146;2022-11-04T05:16:44;96528.94;;;9.15;98.60
62025;BME280;47978;49.118;12.146;2022-11-04T05:19:10;96535.13;;;9.30;98.13
62025;BME280;47978;49.118;12.146;2022-11-04T05:21:37;96532.19;;;9.17;97.98
62025;BME280;47978;49.118;12.146;2022-11-04T05:24:05;96526.19;;;9.15;98.32
62025;BME280;47978;49.118;12.146;2022-11-04T05:26:32;96516.44;;;9.09;98.49
62025;BME280;47978;49.118;12.146;2022-11-04T05:28:58;96511.88;;;9.05;98.58
62025;BME280;47978;49.118;12.146;2022-11-04T05:31:25;96502.66;;;9.09;98.39
62025;BME280;47978;49.118;12.146;2022-11-04T05:33:52;96493.56;;;9.09;98.13
62025;BME280;47978;49.118;12.146;2022-11-04T05:36:19;96495.69;;;9.20;97.38
62025;BME280;47978;49.118;12.146;2022-11-04T05:38:49;96499.09;;;9.09;97.81
62025;BME280;47978;49.118;12.146;2022-11-04T05:41:18;96517.06;;;9.06;97.93
62025;BME280;47978;49.118;12.146;2022-11-04T05:43:44;96523.91;;;9.09;97.67
62025;BME280;47978;49.118;12.146;2022-11-04T05:46:11;96546.41;;;9.02;98.24
62025;BME280;47978;49.118;12.146;2022-11-04T05:48:37;96554.00;;;8.96;98.37
62025;BME280;47978;49.118;12.146;2022-11-04T05:51:06;96551.59;;;8.95;98.43
62025;BME280;47978;49.118;12.146;2022-11-04T05:53:32;96550.63;;;8.91;98.56
62025;BME280;47978;49.118;12.146;2022-11-04T05:55:59;96542.03;;;9.01;98.35
62025;BME280;47978;49.118;12.146;2022-11-04T05:58:27;96537.16;;;8.98;98.36
62025;BME280;47978;49.118;12.146;2022-11-04T06:00:53;96546.72;;;8.92;98.80
62025;BME280;47978;49.118;12.146;2022-11-04T06:03:20;96566.69;;;8.97;98.60
62025;BME280;47978;49.118;12.146;2022-11-04T06:05:46;96564.22;;;8.96;98.65
62025;BME280;47978;49.118;12.146;2022-11-04T06:08:13;96576.44;;;9.04;98.49
62025;BME280;47978;49.118;12.146;2022-11-04T06:10:41;96577.38;;;8.99;98.34
62025;BME280;47978;49.118;12.146;2022-11-04T06:13:08;96572.38;;;9.01;98.65
62025;BME280;47978;49.118;12.146;2022-11-04T06:15:36;96572.88;;;9.03;98.55
62025;BME280;47978;49.118;12.146;2022-11-04T06:18:02;96569.31;;;9.03;98.76
62025;BME280;47978;49.118;12.146;2022-11-04T06:20:29;96575.13;;;9.01;98.67
62025;BME280;47978;49.118;12.146;2022-11-04T06:22:55;96579.50;;;9.02;98.56
62025;BME280;47978;49.118;12.146;2022-11-04T06:25:22;96576.94;;;9.06;98.48
62025;BME280;47978;49.118;12.146;2022-11-04T06:27:48;96572.72;;;9.08;98.09
62025;BME280;47978;49.118;12.146;2022-11-04T06:30:15;96579.38;;;9.07;98.16
62025;BME280;47978;49.118;12.146;2022-11-04T06:32:43;96585.69;;;9.08;98.40
62025;BME280;47978;49.118;12.146;2022-11-04T06:35:10;96588.00;;;9.14;97.83
62025;BME280;47978;49.118;12.146;2022-11-04T06:37:36;96600.78;;;9.10;97.84
62025;BME280;47978;49.118;12.146;2022-11-04T06:40:04;96592.03;;;9.08;98.04
62025;BME280;47978;49.118;12.146;2022-11-04T06:42:30;96596.53;;;9.04;98.06
62025;BME280;47978;49.118;12.146;2022-11-04T06:44:57;96580.63;;;9.01;98.36
62025;BME280;47978;49.118;12.146;2022-11-04T06:47:24;96576.06;;;8.96;98.72
62025;BME280;47978;49.118;12.146;2022-11-04T06:49:52;96594.44;;;9.01;98.12
62025;BME280;47978;49.118;12.146;2022-11-04T06:52:18;96596.25;;;9.06;98.01
62025;BME280;47978;49.118;12.146;2022-11-04T06:54:45;96594.59;;;9.05;98.14
62025;BME280;47978;49.118;12.146;2022-11-04T06:57:11;96599.31;;;9.04;98.17
62025;BME280;47978;49.118;12.146;2022-11-04T06:59:38;96606.53;;;9.22;97.31
62025;BME280;47978;49.118;12.146;2022-11-04T07:02:05;96604.25;;;9.24;96.65
62025;BME280;47978;49.118;12.146;2022-11-04T07:04:31;96599.53;;;9.16;97.04
62025;BME280;47978;49.118;12.146;2022-11-04T07:06:59;96596.78;;;9.16;96.95
62025;BME280;47978;49.118;12.146;2022-11-04T07:09:26;96599.81;;;9.06;97.34
62025;BME280;47978;49.118;12.146;2022-11-04T07:11:52;96598.50;;;9.04;97.77
62025;BME280;47978;49.118;12.146;2022-11-04T07:14:19;96588.91;;;9.01;97.95
62025;BME280;47978;49.118;12.146;2022-11-04T07:16:48;96590.69;;;8.97;98.23
62025;BME280;47978;49.118;12.146;2022-11-04T07:19:15;96579.66;;;8.97;98.00
62025;BME280;47978;49.118;12.146;2022-11-04T07:21:41;96578.69;;;9.01;98.16
62025;BME280;47978;49.118;12.146;2022-11-04T07:24:09;96584.09;;;9.15;97.59
62025;BME280;47978;49.118;12.146;2022-11-04T07:26:36;96579.38;;;9.16;97.21
62025;BME280;47978;49.118;12.146;2022-11-04T07:29:03;96575.31;;;9.13;97.24
62025;BME280;47978;49.118;12.146;2022-11-04T07:31:29;96565.44;;;9.12;97.44
62025;BME280;47978;49.118;12.146;2022-11-04T07:33:56;96556.03;;;9.22;97.36
62025;BME280;47978;49.118;12.146;2022-11-04T07:36:22;96535.25;;;9.16;97.17
62025;BME280;47978;49.118;12.146;2022-11-04T07:38:49;96529.44;;;9.17;97.37
62025;BME280;47978;49.118;12.146;2022-11-04T07:41:17;96513.38;;;9.19;97.38
62025;BME280;47978;49.118;12.146;2022-11-04T07:43:47;96520.84;;;9.28;97.33
62025;BME280;47978;49.118;12.146;2022-11-04T07:46:14;96534.31;;;9.29;97.10
62025;BME280;47978;49.118;12.146;2022-11-04T07:48:41;96538.91;;;9.42;96.62
62025;BME280;47978;49.118;12.146;2022-11-04T07:51:09;96561.16;;;9.46;96.38
62025;BME280;47978;49.118;12.146;2022-11-04T07:53:36;96569.91;;;9.48;96.34
62025;BME280;47978;49.118;12.146;2022-11-04T07:56:04;96559.50;;;9.36;96.29
62025;BME280;47978;49.118;12.146;2022-11-04T07:58:33;96546.53;;;9.54;95.64
62025;BME280;47978;49.118;12.146;2022-11-04T08:01:01;96554.81;;;9.45;95.90
62025;BME280;47978;49.118;12.146;2022-11-04T08:03:28;96563.25;;;9.49;96.52
62025;BME280;47978;49.118;12.146;2022-11-04T08:05:55;96567.63;;;9.50;96.63
62025;BME280;47978;49.118;12.146;2022-11-04T08:08:22;96576.56;;;9.47;96.64
62025;BME280;47978;49.118;12.146;2022-11-04T08:10:53;96579.81;;;9.49;96.70
62025;BME280;47978;49.118;12.146;2022-11-04T08:13:20;96586.47;;;9.48;96.69
62025;BME280;47978;49.118;12.146;2022-11-04T08:15:48;96593.78;;;9.53;96.35
62025;BME280;47978;49.118;12.146;2022-11-04T08:18:14;96601.25;;;9.61;96.16
62025;BME280;47978;49.118;12.146;2022-11-04T08:20:46;96601.91;;;9.66;95.80
62025;BME280;47978;49.118;12.146;2022-11-04T08:23:12;96618.97;;;9.68;95.39
62025;BME280;47978;49.118;12.146;2022-11-04T08:25:39;96624.03;;;9.84;94.85
62025;BME280;47978;49.118;12.146;2022-11-04T08:28:06;96626.16;;;9.96;93.52
62025;BME280;47978;49.118;12.146;2022-11-04T08:30:32;96625.50;;;9.90;93.46
62025;BME280;47978;49.118;12.146;2022-11-04T08:33:00;96625.97;;;9.83;92.13
62025;BME280;47978;49.118;12.146;2022-11-04T08:35:27;96618.84;;;9.74;92.37
62025;BME280;47978;49.118;12.146;2022-11-04T08:37:53;96616.38;;;9.63;93.74
62025;BME280;47978;49.118;12.146;2022-11-04T08:40:20;96614.41;;;9.64;93.63
62025;BME280;47978;49.118;12.146;2022-11-04T08:42:46;96615.88;;;9.70;93.41
62025;BME280;47978;49.118;12.146;2022-11-04T08:45:13;96631.78;;;9.64;93.60
62025;BME280;47978;49.118;12.146;2022-11-04T08:47:39;96636.50;;;9.73;93.32
62025;BME280;47978;49.118;12.146;2022-11-04T08:50:08;96636.50;;;9.73;93.36
62025;BME280;47978;49.118;12.146;2022-11-04T08:52:34;96624.66;;;9.72;93.28
62025;BME280;47978;49.118;12.146;2022-11-04T08:55:01;96615.25;;;9.73;93.35
62025;BME280;47978;49.118;12.146;2022-11-04T08:57:27;96625.47;;;9.73;93.66
62025;BME280;47978;49.118;12.146;2022-11-04T08:59:54;96618.03;;;9.82;93.35
62025;BME280;47978;49.118;12.146;2022-11-04T09:02:20;96620.81;;;9.90;92.53
62025;BME280;47978;49.118;12.146;2022-11-04T09:04:47;96616.25;;;9.95;92.82
62025;BME280;47978;49.118;12.146;2022-11-04T09:07:15;96604.72;;;10.10;90.80
62025;BME280;47978;49.118;12.146;2022-11-04T09:09:41;96603.09;;;10.18;90.13
62025;BME280;47978;49.118;12.146;2022-11-04T09:12:09;96597.41;;;10.23;90.44
62025;BME280;47978;49.118;12.146;2022-11-04T09:14:35;96595.31;;;10.37;89.52
62025;BME280;47978;49.118;12.146;2022-11-04T09:17:02;96593.34;;;10.55;88.90
62025;BME280;47978;49.118;12.146;2022-11-04T09:19:28;96592.34;;;10.60;88.12
62025;BME280;47978;49.118;12.146;2022-11-04T09:21:55;96587.31;;;10.62;87.55
62025;BME280;47978;49.118;12.146;2022-11-04T09:24:23;96585.03;;;10.55;86.51
62025;BME280;47978;49.118;12.146;2022-11-04T09:26:49;96584.84;;;10.69;86.34
62025;BME280;47978;49.118;12.146;2022-11-04T09:29:16;96589.41;;;10.73;86.65
62025;BME280;47978;49.118;12.146;2022-11-04T09:31:42;96581.75;;;10.79;87.75
62025;BME280;47978;49.118;12.146;2022-11-04T09:34:09;96587.06;;;10.84;88.61
62025;BME280;47978;49.118;12.146;2022-11-04T09:36:35;96591.59;;;10.97;85.33
62025;BME280;47978;49.118;12.146;2022-11-04T09:39:02;96584.34;;;11.22;85.03
62025;BME280;47978;49.118;12.146;2022-11-04T09:41:42;96587.69;;;11.37;82.86
62025;BME280;47978;49.118;12.146;2022-11-04T09:44:20;96582.09;;;11.45;82.79
62025;BME280;47978;49.118;12.146;2022-11-04T09:46:49;96579.91;;;11.60;82.75
62025;BME280;47978;49.118;12.146;2022-11-04T09:49:17;96571.91;;;11.58;81.92
62025;BME280;47978;49.118;12.146;2022-11-04T09:51:45;96570.63;;;11.26;82.11
62025;BME280;47978;49.118;12.146;2022-11-04T09:54:23;96575.75;;;11.45;81.09
62025;BME280;47978;49.118;12.146;2022-11-04T09:56:52;96567.03;;;11.55;80.10
62025;BME280;47978;49.118;12.146;2022-11-04T09:59:24;96564.44;;;11.59;80.78
62025;BME280;47978;49.118;12.146;2022-11-04T10:01:57;96566.81;;;11.69;80.83
62025;BME280;47978;49.118;12.146;2022-11-04T10:04:36;96556.28;;;11.83;80.17
62025;BME280;47978;49.118;12.146;2022-11-04T10:07:12;96563.78;;;11.83;78.38
62025;BME280;47978;49.118;12.146;2022-11-04T10:09:53;96548.94;;;11.58;78.34
62025;BME280;47978;49.118;12.146;2022-11-04T10:12:40;96553.16;;;11.64;78.42
62025;BME280;47978;49.118;12.146;2022-11-04T10:15:38;96547.00;;;11.58;79.25
62025;BME280;47978;49.118;12.146;2022-11-04T10:18:16;96543.97;;;11.51;77.05
62025;BME280;47978;49.118;12.146;2022-11-04T10:20:56;96536.91;;;11.33;79.00
62025;BME280;47978;49.118;12.146;2022-11-04T10:23:31;96543.25;;;11.33;78.92
62025;BME280;47978;49.118;12.146;2022-11-04T10:26:05;96542.28;;;11.29;79.71
62025;BME280;47978;49.118;12.146;2022-11-04T10:28:39;96540.28;;;11.38;80.00
62025;BME280;47978;49.118;12.146;2022-11-04T10:31:06;96545.97;;;11.42;79.76
62025;BME280;47978;49.118;12.146;2022-11-04T10:33:39;96556.66;;;11.52;79.09
62025;BME280;47978;49.118;12.146;2022-11-04T10:36:09;96559.09;;;11.24;79.80
62025;BME280;47978;49.118;12.146;2022-11-04T10:38:39;96569.97;;;11.29;80.19
62025;BME280;47978;49.118;12.146;2022-11-04T10:41:25;96574.16;;;11.35;80.02
62025;BME280;47978;49.118;12.146;2022-11-04T10:43:56;96570.50;;;11.52;78.65
62025;BME280;47978;49.118;12.146;2022-11-04T10:46:34;96569.59;;;11.39;79.04
62025;BME280;47978;49.118;12.146;2022-11-04T10:49:19;96567.34;;;11.62;78.75
62025;BME280;47978;49.118;12.146;2022-11-04T10:51:50;96555.59;;;11.65;77.19
62025;BME280;47978;49.118;12.146;2022-11-04T10:54:16;96547.59;;;11.64;79.08
62025;BME280;47978;49.118;12.146;2022-11-04T10:56:46;96549.31;;;11.77;78.79
62025;BME280;47978;49.118;12.146;2022-11-04T10:59:21;96551.81;;;11.70;78.02
62025;BME280;47978;49.118;12.146;2022-11-04T11:01:50;96549.56;;;11.63;78.57
62025;BME280;47978;49.118;12.146;2022-11-04T11:04:26;96549.06;;;11.70;79.11
62025;BME280;47978;49.118;12.146;2022-11-04T11:06:54;96552.44;;;11.76;78.37
62025;BME280;47978;49.118;12.146;2022-11-04T11:09:24;96549.72;;;11.67;77.82
62025;BME280;47978;49.118;12.146;2022-11-04T11:11:51;96548.84;;;11.75;77.87
62025;BME280;47978;49.118;12.146;2022-11-04T11:14:31;96542.84;;;11.73;77.53
62025;BME280;47978;49.118;12.146;2022-11-04T11:17:17;96536.50;;;11.73;78.45
62025;BME280;47978;49.118;12.146;2022-11-04T11:19:47;96533.63;;;11.60;77.33
62025;BME280;47978;49.118;12.146;2022-11-04T11:22:34;96517.97;;;11.64;78.47
62025;BME280;47978;49.118;12.146;2022-11-04T11:25:23;96508.09;;;11.55;77.56
62025;BME280;47978;49.118;12.146;2022-11-04T11:27:51;96517.81;;;11.61;77.59
62025;BME280;47978;49.118;12.146;2022-11-04T11:30:26;96519.66;;;11.57;78.11
62025;BME280;47978;49.118;12.146;2022-11-04T11:32:56;96513.81;;;11.49;78.00
62025;BME280;47978;49.118;12.146;2022-11-04T11:35:27;96508.69;;;11.39;76.75
62025;BME280;47978;49.118;12.146;2022-11-04T11:37:54;96511.97;;;11.41;77.04
62025;BME280;47978;49.118;12.146;2022-11-04T11:40:24;96512.75;;;11.42;76.95
62025;BME280;47978;49.118;12.146;2022-11-04T11:42:51;96515.78;;;11.49;78.13
62025;BME280;47978;49.118;12.146;2022-11-04T11:45:19;96509.44;;;11.48;77.97
62025;BME280;47978;49.118;12.146;2022-11-04T11:47:47;96511.13;;;11.41;77.89
62025;BME280;47978;49.118;12.146;2022-11-04T11:50:15;96514.25;;;11.39;78.13
62025;BME280;47978;49.118;12.146;2022-11-04T11:52:42;96515.72;;;11.37;78.76
62025;BME280;47978;49.118;12.146;2022-11-04T11:55:14;96510.50;;;11.35;79.49
62025;BME280;47978;49.118;12.146;2022-11-04T11:57:49;96509.19;;;11.41;78.13
62025;BME280;47978;49.118;12.146;2022-11-04T12:00:43;96519.25;;;11.16;79.94
62025;BME280;47978;49.118;12.146;2022-11-04T12:03:21;96523.94;;;11.24;80.13
62025;BME280;47978;49.118;12.146;2022-11-04T12:05:58;96529.34;;;11.12;79.26
62025;BME280;47978;49.118;12.146;2022-11-04T12:08:49;96541.72;;;11.15;78.80
62025;BME280;47978;49.118;12.146;2022-11-04T12:11:48;96544.25;;;10.99;77.44
62025;BME280;47978;49.118;12.146;2022-11-04T12:14:23;96545.28;;;10.86;78.85
62025;BME280;47978;49.118;12.146;2022-11-04T12:16:58;96549.47;;;10.92;78.60
62025;BME280;47978;49.118;12.146;2022-11-04T12:19:40;96554.88;;;10.88;78.63
62025;BME280;47978;49.118;12.146;2022-11-04T12:22:17;96557.88;;;10.57;79.54
62025;BME280;47978;49.118;12.146;2022-11-04T12:24:53;96560.00;;;10.60;80.48
62025;BME280;47978;49.118;12.146;2022-11-04T12:27:30;96557.75;;;10.53;80.37
62025;BME280;47978;49.118;12.146;2022-11-04T12:30:06;96556.91;;;10.53;80.15
62025;BME280;47978;49.118;12.146;2022-11-04T12:32:41;96546.50;;;10.50;80.43
62025;BME280;47978;49.118;12.146;2022-11-04T12:35:23;96551.22;;;10.58;80.10
62025;BME280;47978;49.118;12.146;2022-11-04T12:38:03;96551.09;;;10.37;81.24
62025;BME280;47978;49.118;12.146;2022-11-04T12:40:38;96552.22;;;10.53;81.06
62025;BME280;47978;49.118;12.146;2022-11-04T12:43:17;96559.69;;;10.44;81.49
62025;BME280;47978;49.118;12.146;2022-11-04T12:45:59;96564.72;;;10.51;80.60
62025;BME280;47978;49.118;12.146;2022-11-04T12:48:43;96565.75;;;10.29;81.48
62025;BME280;47978;49.118;12.146;2022-11-04T12:51:30;96564.13;;;10.37;81.63
62025;BME280;47978;49.118;12.146;2022-11-04T12:54:20;96572.41;;;10.28;81.36
62025;BME280;47978;49.118;12.146;2022-11-04T12:56:55;96568.97;;;10.22;82.03
62025;BME280;47978;49.118;12.146;2022-11-04T12:59:40;96568.81;;;10.27;81.15
62025;BME280;47978;49.118;12.146;2022-11-04T13:02:15;96563.94;;;10.33;81.02
62025;BME280;47978;49.118;12.146;2022-11-04T13:04:47;96569.81;;;10.31;81.57
62025;BME280;47978;49.118;12.146;2022-11-04T13:07:19;96568.00;;;10.18;82.50
62025;BME280;47978;49.118;12.146;2022-11-04T13:09:51;96568.31;;;10.25;83.78
62025;BME280;47978;49.118;12.146;2022-11-04T13:12:21;96574.31;;;10.19;84.47
62025;BME280;47978;49.118;12.146;2022-11-04T13:14:51;96570.75;;;10.18;82.62